sensor_id;sensor_type;location;lat;lon;timestamp;pressure;altitude;pressure_sealevel;temperature;humidity
38022;BME280;23832;43.216;27.946;2022-07-29T00:01:58;100871.94;;;25.85;100.00
38022;BME280;23832;43.216;27.946;2022-07-29T00:04:00;100874.09;;;25.83;100.00
38022;BME280;23832;43.216;27.946;2022-07-29T00:06:02;100873.84;;;25.84;100.00
38022;BME280;23832;43.216;27.946;2022-07-29T00:08:04;100875.44;;;25.85;100.00
38022;BME280;23832;43.216;27.946;2022-07-29T00:10:06;100874.91;;;25.83;100.00
38022;BME280;23832;43.216;27.946;2022-07-29T00:12:07;100873.00;;;25.79;100.00
38022;BME280;23832;43.216;27.946;2022-07-29T00:14:09;100875.97;;;25.77;100.00
38022;BME280;23832;43.216;27.946;2022-07-29T00:16:12;100871.13;;;25.74;100.00
38022;BME280;23832;43.216;27.946;2022-07-29T00:18:14;100873.28;;;25.72;100.00
38022;BME280;23832;43.216;27.946;2022-07-29T00:20:15;100877.28;;;25.69;100.00
38022;BME280;23832;43.216;27.946;2022-07-29T00:22:17;100880.78;;;25.70;100.00
38022;BME280;23832;43.216;27.946;2022-07-29T00:24:19;100878.63;;;25.67;100.00
38022;BME280;23832;43.216;27.946;2022-07-29T00:26:21;100880.78;;;25.65;100.00
38022;BME280;23832;43.216;27.946;2022-07-29T00:28:22;100884.03;;;25.62;100.00
38022;BME280;23832;43.216;27.946;2022-07-29T00:30:24;100876.19;;;25.60;100.00
38022;BME280;23832;43.216;27.946;2022-07-29T00:32:27;100874.28;;;25.61;100.00
38022;BME280;23832;43.216;27.946;2022-07-29T00:34:29;100883.47;;;25.60;100.00
38022;BME280;23832;43.216;27.946;2022-07-29T00:36:47;100884.56;;;25.59;100.00
38022;BME280;23832;43.216;27.946;2022-07-29T00:38:49;100879.16;;;25.59;100.00
38022;BME280;23832;43.216;27.946;2022-07-29T00:40:51;100887.25;;;25.54;100.00
38022;BME280;23832;43.216;27.946;2022-07-29T00:42:53;100880.25;;;25.53;100.00
38022;BME280;23832;43.216;27.946;2022-07-29T00:44:54;100878.59;;;25.52;100.00
38022;BME280;23832;43.216;27.946;2022-07-29T00:46:56;100872.94;;;25.48;100.00
38022;BME280;23832;43.216;27.946;2022-07-29T00:48:59;100871.84;;;25.44;100.00
38022;BME280;23832;43.216;27.946;2022-07-29T00:51:01;100865.63;;;25.43;100.00
38022;BME280;23832;43.216;27.946;2022-07-29T00:53:04;100869.38;;;25.42;100.00
38022;BME280;23832;43.216;27.946;2022-07-29T00:55:07;100862.38;;;25.41;100.00
38022;BME280;23832;43.216;27.946;2022-07-29T00:57:10;100864.53;;;25.39;100.00
38022;BME280;23832;43.216;27.946;2022-07-29T00:59:11;100862.91;;;25.38;100.00
38022;BME280;23832;43.216;27.946;2022-07-29T01:01:13;100862.91;;;25.38;100.00
38022;BME280;23832;43.216;27.946;2022-07-29T01:03:15;100858.06;;;25.35;100.00
38022;BME280;23832;43.216;27.946;2022-07-29T01:05:19;100863.44;;;25.35;100.00
38022;BME280;23832;43.216;27.946;2022-07-29T01:07:21;100863.97;;;25.32;100.00
38022;BME280;23832;43.216;27.946;2022-07-29T01:09:22;100866.41;;;25.34;100.00
38022;BME280;23832;43.216;27.946;2022-07-29T01:11:24;100862.88;;;25.33;100.00
38022;BME280;23832;43.216;27.946;2022-07-29T01:13:27;100863.97;;;25.32;100.00
38022;BME280;23832;43.216;27.946;2022-07-29T01:15:29;100868.28;;;25.33;100.00
38022;BME280;23832;43.216;27.946;2022-07-29T01:17:32;100861.28;;;25.27;100.00
38022;BME280;23832;43.216;27.946;2022-07-29T01:19:42;100860.47;;;25.27;100.00
38022;BME280;23832;43.216;27.946;2022-07-29T01:21:51;100859.66;;;25.26;100.00
38022;BME280;23832;43.216;27.946;2022-07-29T01:24:07;100856.38;;;25.24;100.00
38022;BME280;23832;43.216;27.946;2022-07-29T01:26:22;100858.00;;;25.20;100.00
38022;BME280;23832;43.216;27.946;2022-07-29T01:28:47;100856.88;;;25.16;100.00
38022;BME280;23832;43.216;27.946;2022-07-29T01:30:50;100851.50;;;25.16;100.00
38022;BME280;23832;43.216;27.946;2022-07-29T01:32:54;100846.38;;;25.14;100.00
38022;BME280;23832;43.216;27.946;2022-07-29T01:34:58;100855.28;;;25.10;100.00
38022;BME280;23832;43.216;27.946;2022-07-29T01:37:05;100846.09;;;25.11;100.00
38022;BME280;23832;43.216;27.946;2022-07-29T01:39:10;100845.56;;;25.09;100.00
38022;BME280;23832;43.216;27.946;2022-07-29T01:41:12;100848.22;;;25.04;100.00
38022;BME280;23832;43.216;27.946;2022-07-29T01:43:17;100850.09;;;25.03;100.00
38022;BME280;23832;43.216;27.946;2022-07-29T01:45:23;100846.59;;;25.03;100.00
38022;BME280;23832;43.216;27.946;2022-07-29T01:47:26;100850.91;;;25.04;100.00
38022;BME280;23832;43.216;27.946;2022-07-29T01:49:34;100851.47;;;25.06;100.00
38022;BME280;23832;43.216;27.946;2022-07-29T01:51:40;100850.34;;;25.02;100.00
38022;BME280;23832;43.216;27.946;2022-07-29T01:53:45;100841.72;;;25.00;100.00
38022;BME280;23832;43.216;27.946;2022-07-29T01:55:47;100841.13;;;24.98;100.00
38022;BME280;23832;43.216;27.946;2022-07-29T01:57:49;100848.44;;;24.97;100.00
38022;BME280;23832;43.216;27.946;2022-07-29T01:59:51;100846.53;;;24.92;100.00
38022;BME280;23832;43.216;27.946;2022-07-29T02:01:57;100837.38;;;24.94;100.00
38022;BME280;23832;43.216;27.946;2022-07-29T02:03:59;100839.53;;;24.91;100.00
38022;BME280;23832;43.216;27.946;2022-07-29T02:06:04;100843.28;;;24.90;100.00
38022;BME280;23832;43.216;27.946;2022-07-29T02:08:07;100837.31;;;24.88;100.00
38022;BME280;23832;43.216;27.946;2022-07-29T02:10:10;100841.63;;;24.84;100.00
38022;BME280;23832;43.216;27.946;2022-07-29T02:12:13;100850.81;;;24.83;100.00
38022;BME280;23832;43.216;27.946;2022-07-29T02:14:16;100850.25;;;24.81;100.00
38022;BME280;23832;43.216;27.946;2022-07-29T02:16:19;100843.78;;;24.82;100.00
38022;BME280;23832;43.216;27.946;2022-07-29T02:18:23;100838.91;;;24.79;100.00
38022;BME280;23832;43.216;27.946;2022-07-29T02:20:28;100843.22;;;24.75;100.00
38022;BME280;23832;43.216;27.946;2022-07-29T02:22:31;100847.78;;;24.75;100.00
38022;BME280;23832;43.216;27.946;2022-07-29T02:24:35;100845.91;;;24.75;100.00
38022;BME280;23832;43.216;27.946;2022-07-29T02:26:38;100842.94;;;24.72;100.00
38022;BME280;23832;43.216;27.946;2022-07-29T02:28:41;100839.94;;;24.68;100.00
38022;BME280;23832;43.216;27.946;2022-07-29T02:30:43;100836.69;;;24.66;100.00
38022;BME280;23832;43.216;27.946;2022-07-29T02:32:45;100836.16;;;24.64;100.00
38022;BME280;23832;43.216;27.946;2022-07-29T02:34:49;100839.66;;;24.65;100.00
38022;BME280;23832;43.216;27.946;2022-07-29T02:36:52;100839.66;;;24.65;100.00
38022;BME280;23832;43.216;27.946;2022-07-29T02:38:55;100839.91;;;24.63;100.00
38022;BME280;23832;43.216;27.946;2022-07-29T02:41:01;100839.91;;;24.63;100.00
38022;BME280;23832;43.216;27.946;2022-07-29T02:43:05;100846.34;;;24.62;100.00
38022;BME280;23832;43.216;27.946;2022-07-29T02:45:07;100845.00;;;24.59;100.00
38022;BME280;23832;43.216;27.946;2022-07-29T02:47:10;100849.84;;;24.57;100.00
38022;BME280;23832;43.216;27.946;2022-07-29T02:49:15;100851.72;;;24.57;100.00
38022;BME280;23832;43.216;27.946;2022-07-29T02:51:26;100856.84;;;24.53;100.00
38022;BME280;23832;43.216;27.946;2022-07-29T02:53:29;100856.00;;;24.53;100.00
38022;BME280;23832;43.216;27.946;2022-07-29T02:55:35;100849.81;;;24.52;100.00
38022;BME280;23832;43.216;27.946;2022-07-29T02:57:39;100852.50;;;24.52;100.00
38022;BME280;23832;43.216;27.946;2022-07-29T02:59:42;100851.69;;;24.52;100.00
38022;BME280;23832;43.216;27.946;2022-07-29T03:01:46;100855.47;;;24.51;100.00
38022;BME280;23832;43.216;27.946;2022-07-29T03:03:48;100860.59;;;24.52;100.00
38022;BME280;23832;43.216;27.946;2022-07-29T03:05:51;100854.97;;;24.54;100.00
38022;BME280;23832;43.216;27.946;2022-07-29T03:07:56;100857.66;;;24.54;100.00
38022;BME280;23832;43.216;27.946;2022-07-29T03:09:58;100863.59;;;24.56;100.00
38022;BME280;23832;43.216;27.946;2022-07-29T03:12:00;100868.44;;;24.59;100.00
38022;BME280;23832;43.216;27.946;2022-07-29T03:14:02;100861.16;;;24.59;100.00
38022;BME280;23832;43.216;27.946;2022-07-29T03:16:05;100863.88;;;24.59;100.00
38022;BME280;23832;43.216;27.946;2022-07-29T03:18:08;100873.31;;;24.62;100.00
38022;BME280;23832;43.216;27.946;2022-07-29T03:20:10;100868.50;;;24.64;100.00
38022;BME280;23832;43.216;27.946;2022-07-29T03:22:12;100873.34;;;24.67;100.00
38022;BME280;23832;43.216;27.946;2022-07-29T03:24:26;100869.59;;;24.68;100.00
38022;BME280;23832;43.216;27.946;2022-07-29T03:26:27;100877.41;;;24.70;100.00
38022;BME280;23832;43.216;27.946;2022-07-29T03:28:29;100875.00;;;24.73;100.00
38022;BME280;23832;43.216;27.946;2022-07-29T03:30:31;100881.22;;;24.74;100.00
38022;BME280;23832;43.216;27.946;2022-07-29T03:32:32;100882.56;;;24.76;100.00
38022;BME280;23832;43.216;27.946;2022-07-29T03:34:35;100884.75;;;24.79;100.00
38022;BME280;23832;43.216;27.946;2022-07-29T03:36:36;100886.94;;;24.82;100.00
38022;BME280;23832;43.216;27.946;2022-07-29T03:38:38;100885.31;;;24.86;100.00
38022;BME280;23832;43.216;27.946;2022-07-29T03:40:44;100893.41;;;24.86;100.00
38022;BME280;23832;43.216;27.946;2022-07-29T03:42:48;100885.88;;;24.88;100.00
38022;BME280;23832;43.216;27.946;2022-07-29T03:44:51;100888.06;;;24.91;100.00
38022;BME280;23832;43.216;27.946;2022-07-29T03:46:53;100892.38;;;24.92;100.00
38022;BME280;23832;43.216;27.946;2022-07-29T03:48:58;100896.44;;;24.95;100.00
38022;BME280;23832;43.216;27.946;2022-07-29T03:51:01;100898.84;;;24.97;100.00
38022;BME280;23832;43.216;27.946;2022-07-29T03:53:03;100895.66;;;25.00;100.00
38022;BME280;23832;43.216;27.946;2022-07-29T03:55:05;100896.19;;;25.02;100.00
38022;BME280;23832;43.216;27.946;2022-07-29T03:57:08;100899.50;;;25.09;100.00
38022;BME280;23832;43.216;27.946;2022-07-29T03:59:11;100892.75;;;25.11;100.00
38022;BME280;23832;43.216;27.946;2022-07-29T04:01:13;100901.72;;;25.17;100.00
38022;BME280;23832;43.216;27.946;2022-07-29T04:03:17;100898.47;;;25.20;100.00
38022;BME280;23832;43.216;27.946;2022-07-29T04:05:19;100903.88;;;25.25;100.00
38022;BME280;23832;43.216;27.946;2022-07-29T04:07:21;100895.25;;;25.28;100.00
38022;BME280;23832;43.216;27.946;2022-07-29T04:09:22;100900.66;;;25.33;100.00
38022;BME280;23832;43.216;27.946;2022-07-29T04:11:24;100900.69;;;25.38;100.00
38022;BME280;23832;43.216;27.946;2022-07-29T04:13:27;100897.47;;;25.41;100.00
38022;BME280;23832;43.216;27.946;2022-07-29T04:15:29;100901.25;;;25.45;100.00
38022;BME280;23832;43.216;27.946;2022-07-29T04:17:30;100898.84;;;25.49;100.00
38022;BME280;23832;43.216;27.946;2022-07-29T04:19:32;100895.59;;;25.52;100.00
38022;BME280;23832;43.216;27.946;2022-07-29T04:21:36;100893.19;;;25.56;100.00
38022;BME280;23832;43.216;27.946;2022-07-29T04:23:38;100886.97;;;25.60;100.00
38022;BME280;23832;43.216;27.946;2022-07-29T04:25:39;100888.91;;;25.65;100.00
38022;BME280;23832;43.216;27.946;2022-07-29T04:27:41;100893.75;;;25.68;100.00
38022;BME280;23832;43.216;27.946;2022-07-29T04:29:58;100891.91;;;25.73;100.00
38022;BME280;23832;43.216;27.946;2022-07-29T04:32:00;100882.47;;;25.81;100.00
38022;BME280;23832;43.216;27.946;2022-07-29T04:34:01;100886.53;;;25.89;100.00
38022;BME280;23832;43.216;27.946;2022-07-29T04:36:03;100895.97;;;25.96;100.00
38022;BME280;23832;43.216;27.946;2022-07-29T04:38:05;100891.94;;;26.04;100.00
38022;BME280;23832;43.216;27.946;2022-07-29T04:40:08;100888.16;;;26.10;100.00
38022;BME280;23832;43.216;27.946;2022-07-29T04:42:10;100879.78;;;26.12;100.00
38022;BME280;23832;43.216;27.946;2022-07-29T04:44:11;100883.03;;;26.19;100.00
38022;BME280;23832;43.216;27.946;2022-07-29T04:46:14;100885.72;;;26.24;100.00
38022;BME280;23832;43.216;27.946;2022-07-29T04:48:16;100887.88;;;26.32;100.00
38022;BME280;23832;43.216;27.946;2022-07-29T04:50:18;100890.34;;;26.39;100.00
38022;BME280;23832;43.216;27.946;2022-07-29T04:52:20;100885.75;;;26.44;100.00
38022;BME280;23832;43.216;27.946;2022-07-29T04:54:22;100882.50;;;26.52;100.00
38022;BME280;23832;43.216;27.946;2022-07-29T04:56:23;100880.31;;;26.59;100.00
38022;BME280;23832;43.216;27.946;2022-07-29T04:58:25;100881.91;;;26.66;100.00
38022;BME280;23832;43.216;27.946;2022-07-29T05:00:27;100882.44;;;26.73;100.00
38022;BME280;23832;43.216;27.946;2022-07-29T05:02:30;100881.38;;;26.79;100.00
38022;BME280;23832;43.216;27.946;2022-07-29T05:04:31;100878.09;;;26.87;100.00
38022;BME280;23832;43.216;27.946;2022-07-29T05:06:33;100879.41;;;26.95;100.00
38022;BME280;23832;43.216;27.946;2022-07-29T05:08:35;100868.03;;;27.03;100.00
38022;BME280;23832;43.216;27.946;2022-07-29T05:10:36;100875.06;;;27.09;100.00
38022;BME280;23832;43.216;27.946;2022-07-29T05:12:38;100866.66;;;27.15;100.00
38022;BME280;23832;43.216;27.946;2022-07-29T05:14:40;100860.97;;;27.17;100.00
38022;BME280;23832;43.216;27.946;2022-07-29T05:16:42;100862.28;;;27.25;100.00
38022;BME280;23832;43.216;27.946;2022-07-29T05:18:45;100882.00;;;27.30;100.00
38022;BME280;23832;43.216;27.946;2022-07-29T05:20:46;100877.38;;;27.36;100.00
38022;BME280;23832;43.216;27.946;2022-07-29T05:22:48;100879.50;;;27.39;100.00
38022;BME280;23832;43.216;27.946;2022-07-29T05:24:50;100874.91;;;27.39;100.00
38022;BME280;23832;43.216;27.946;2022-07-29T05:26:52;100875.47;;;27.41;100.00
38022;BME280;23832;43.216;27.946;2022-07-29T05:28:54;100877.84;;;27.48;100.00
38022;BME280;23832;43.216;27.946;2022-07-29T05:30:57;100876.16;;;27.57;100.00
38022;BME280;23832;43.216;27.946;2022-07-29T05:32:58;100866.38;;;27.66;100.00
38022;BME280;23832;43.216;27.946;2022-07-29T05:35:02;100876.63;;;27.75;100.00
38022;BME280;23832;43.216;27.946;2022-07-29T05:37:04;100869.28;;;27.80;100.00
38022;BME280;23832;43.216;27.946;2022-07-29T05:39:06;100874.94;;;27.84;100.00
38022;BME280;23832;43.216;27.946;2022-07-29T05:41:07;100871.38;;;27.88;100.00
38022;BME280;23832;43.216;27.946;2022-07-29T05:43:09;100870.00;;;27.91;100.00
38022;BME280;23832;43.216;27.946;2022-07-29T05:45:11;100868.38;;;27.95;100.00
38022;BME280;23832;43.216;27.946;2022-07-29T05:47:12;100868.31;;;28.00;100.00
38022;BME280;23832;43.216;27.946;2022-07-29T05:49:14;100872.09;;;28.04;100.00
38022;BME280;23832;43.216;27.946;2022-07-29T05:51:18;100869.03;;;28.11;100.00
38022;BME280;23832;43.216;27.946;2022-07-29T05:53:19;100868.72;;;28.17;100.00
38022;BME280;23832;43.216;27.946;2022-07-29T05:55:21;100882.16;;;28.27;100.00
38022;BME280;23832;43.216;27.946;2022-07-29T05:57:23;100877.78;;;28.37;100.00
38022;BME280;23832;43.216;27.946;2022-07-29T05:59:24;100873.41;;;28.41;100.00
38022;BME280;23832;43.216;27.946;2022-07-29T06:01:26;100886.09;;;28.45;100.00
38022;BME280;23832;43.216;27.946;2022-07-29T06:03:28;100879.03;;;28.49;100.00
38022;BME280;23832;43.216;27.946;2022-07-29T06:05:30;100873.59;;;28.49;100.00
38022;BME280;23832;43.216;27.946;2022-07-29T06:07:33;100884.16;;;28.51;100.00
38022;BME280;23832;43.216;27.946;2022-07-29T06:09:35;100885.53;;;28.48;100.00
38022;BME280;23832;43.216;27.946;2022-07-29T06:11:36;100882.06;;;28.43;100.00
38022;BME280;23832;43.216;27.946;2022-07-29T06:13:38;100879.34;;;28.43;100.00
38022;BME280;23832;43.216;27.946;2022-07-29T06:15:40;100880.97;;;28.44;100.00
38022;BME280;23832;43.216;27.946;2022-07-29T06:17:41;100885.81;;;28.47;100.00
38022;BME280;23832;43.216;27.946;2022-07-29T06:19:43;100888.81;;;28.45;100.00
38022;BME280;23832;43.216;27.946;2022-07-29T06:21:45;100883.91;;;28.47;100.00
38022;BME280;23832;43.216;27.946;2022-07-29T06:23:49;100879.56;;;28.46;100.00
38022;BME280;23832;43.216;27.946;2022-07-29T06:25:50;100889.88;;;28.49;100.00
38022;BME280;23832;43.216;27.946;2022-07-29T06:27:52;100884.16;;;28.51;100.00
38022;BME280;23832;43.216;27.946;2022-07-29T06:29:54;100889.47;;;28.61;100.00
38022;BME280;23832;43.216;27.946;2022-07-29T06:31:56;100884.56;;;28.63;100.00
38022;BME280;23832;43.216;27.946;2022-07-29T06:33:57;100885.81;;;28.76;100.00
38022;BME280;23832;43.216;27.946;2022-07-29T06:35:59;100887.06;;;28.83;100.00
38022;BME280;23832;43.216;27.946;2022-07-29T06:38:01;100877.50;;;28.91;100.00
38022;BME280;23832;43.216;27.946;2022-07-29T06:40:05;100883.59;;;29.02;100.00
38022;BME280;23832;43.216;27.946;2022-07-29T06:42:41;100875.88;;;29.14;100.00
38022;BME280;23832;43.216;27.946;2022-07-29T06:44:43;100886.59;;;29.24;100.00
38022;BME280;23832;43.216;27.946;2022-07-29T06:46:44;100878.47;;;29.24;100.00
38022;BME280;23832;43.216;27.946;2022-07-29T06:48:49;100873.38;;;29.36;100.00
38022;BME280;23832;43.216;27.946;2022-07-29T06:50:50;100878.69;;;29.47;100.00
38022;BME280;23832;43.216;27.946;2022-07-29T06:52:52;100877.88;;;29.46;100.00
38022;BME280;23832;43.216;27.946;2022-07-29T06:54:54;100882.38;;;29.56;100.00
38022;BME280;23832;43.216;27.946;2022-07-29T06:56:57;100878.84;;;29.55;100.00
38022;BME280;23832;43.216;27.946;2022-07-29T06:58:59;100880.63;;;29.65;100.00
38022;BME280;23832;43.216;27.946;2022-07-29T07:01:01;100877.03;;;29.70;100.00
38022;BME280;23832;43.216;27.946;2022-07-29T07:03:03;100864.75;;;29.72;100.00
38022;BME280;23832;43.216;27.946;2022-07-29T07:05:05;100868.59;;;29.71;99.42
38022;BME280;23832;43.216;27.946;2022-07-29T07:07:07;100870.34;;;29.62;99.20
38022;BME280;23832;43.216;27.946;2022-07-29T07:09:09;100879.00;;;29.64;100.00
38022;BME280;23832;43.216;27.946;2022-07-29T07:11:10;100877.75;;;29.56;94.94
38022;BME280;23832;43.216;27.946;2022-07-29T07:13:13;100882.16;;;29.52;95.62
38022;BME280;23832;43.216;27.946;2022-07-29T07:15:17;100882.13;;;29.57;97.37
38022;BME280;23832;43.216;27.946;2022-07-29T07:17:21;100882.81;;;29.63;96.06
38022;BME280;23832;43.216;27.946;2022-07-29T07:19:23;100875.13;;;29.70;94.80
38022;BME280;23832;43.216;27.946;2022-07-29T07:21:25;100879.97;;;29.73;93.63
38022;BME280;23832;43.216;27.946;2022-07-29T07:23:26;100877.47;;;29.77;93.76
38022;BME280;23832;43.216;27.946;2022-07-29T07:25:28;100877.25;;;29.73;90.43
38022;BME280;23832;43.216;27.946;2022-07-29T07:27:29;100882.41;;;29.75;90.13
38022;BME280;23832;43.216;27.946;2022-07-29T07:29:32;100881.66;;;29.69;90.12
38022;BME280;23832;43.216;27.946;2022-07-29T07:31:35;100892.81;;;29.67;92.93
38022;BME280;23832;43.216;27.946;2022-07-29T07:33:37;100882.16;;;29.71;99.06
38022;BME280;23832;43.216;27.946;2022-07-29T07:35:40;100892.56;;;29.83;100.00
38022;BME280;23832;43.216;27.946;2022-07-29T07:37:41;100884.34;;;29.88;100.00
38022;BME280;23832;43.216;27.946;2022-07-29T07:39:43;100885.03;;;29.80;100.00
38022;BME280;23832;43.216;27.946;2022-07-29T07:41:45;100894.56;;;29.96;100.00
38022;BME280;23832;43.216;27.946;2022-07-29T07:43:46;100893.53;;;30.11;100.00
38022;BME280;23832;43.216;27.946;2022-07-29T07:45:49;100878.06;;;30.25;100.00
38022;BME280;23832;43.216;27.946;2022-07-29T07:47:51;100885.72;;;30.37;100.00
38022;BME280;23832;43.216;27.946;2022-07-29T07:49:53;100889.38;;;30.32;100.00
38022;BME280;23832;43.216;27.946;2022-07-29T07:51:54;100889.97;;;30.29;93.99
38022;BME280;23832;43.216;27.946;2022-07-29T07:53:56;100885.66;;;30.42;96.17
38022;BME280;23832;43.216;27.946;2022-07-29T07:55:58;100889.91;;;30.48;98.51
38022;BME280;23832;43.216;27.946;2022-07-29T07:58:00;100891.16;;;30.37;94.19
38022;BME280;23832;43.216;27.946;2022-07-29T08:00:02;100887.88;;;30.53;95.43
38022;BME280;23832;43.216;27.946;2022-07-29T08:02:06;100887.50;;;30.60;92.21
38022;BME280;23832;43.216;27.946;2022-07-29T08:04:08;100892.06;;;30.65;90.20
38022;BME280;23832;43.216;27.946;2022-07-29T08:06:10;100893.06;;;30.69;90.48
38022;BME280;23832;43.216;27.946;2022-07-29T08:08:12;100886.94;;;30.77;94.72
38022;BME280;23832;43.216;27.946;2022-07-29T08:10:13;100885.31;;;30.90;96.39
38022;BME280;23832;43.216;27.946;2022-07-29T08:12:35;100879.97;;;30.98;88.08
38022;BME280;23832;43.216;27.946;2022-07-29T08:14:37;100887.72;;;31.05;87.95
38022;BME280;23832;43.216;27.946;2022-07-29T08:16:39;100890.84;;;31.12;88.87
38022;BME280;23832;43.216;27.946;2022-07-29T08:18:43;100888.63;;;31.14;86.31
38022;BME280;23832;43.216;27.946;2022-07-29T08:20:44;100888.00;;;31.17;83.35
38022;BME280;23832;43.216;27.946;2022-07-29T08:22:46;100885.22;;;31.22;85.00
38022;BME280;23832;43.216;27.946;2022-07-29T08:24:49;100890.75;;;31.31;84.17
38022;BME280;23832;43.216;27.946;2022-07-29T08:26:54;100888.75;;;31.37;83.04
38022;BME280;23832;43.216;27.946;2022-07-29T08:28:56;100877.72;;;31.42;76.56
38022;BME280;23832;43.216;27.946;2022-07-29T08:30:57;100885.47;;;31.48;75.95
38022;BME280;23832;43.216;27.946;2022-07-29T08:32:59;100879.47;;;31.60;77.51
38022;BME280;23832;43.216;27.946;2022-07-29T08:35:03;100882.28;;;31.69;73.00
38022;BME280;23832;43.216;27.946;2022-07-29T08:37:05;100883.19;;;31.78;68.72
38022;BME280;23832;43.216;27.946;2022-07-29T08:39:07;100880.13;;;31.79;66.66
38022;BME280;23832;43.216;27.946;2022-07-29T08:41:09;100882.63;;;31.89;66.01
38022;BME280;23832;43.216;27.946;2022-07-29T08:43:11;100884.19;;;31.82;62.95
38022;BME280;23832;43.216;27.946;2022-07-29T08:45:13;100887.31;;;31.98;63.50
38022;BME280;23832;43.216;27.946;2022-07-29T08:47:15;100886.63;;;32.14;63.73
38022;BME280;23832;43.216;27.946;2022-07-29T08:49:16;100876.72;;;32.41;59.44
38022;BME280;23832;43.216;27.946;2022-07-29T08:51:20;100880.19;;;32.64;59.42
38022;BME280;23832;43.216;27.946;2022-07-29T08:53:22;100881.97;;;32.68;57.30
38022;BME280;23832;43.216;27.946;2022-07-29T08:55:26;100875.47;;;32.47;57.93
38022;BME280;23832;43.216;27.946;2022-07-29T08:57:28;100875.59;;;32.42;56.27
38022;BME280;23832;43.216;27.946;2022-07-29T08:59:30;100836.53;;;32.64;56.85
38022;BME280;23832;43.216;27.946;2022-07-29T09:01:33;100842.72;;;32.95;55.66
38022;BME280;23832;43.216;27.946;2022-07-29T09:03:38;100872.41;;;33.37;56.04
38022;BME280;23832;43.216;27.946;2022-07-29T09:05:43;100868.69;;;33.50;52.70
38022;BME280;23832;43.216;27.946;2022-07-29T09:07:47;100869.69;;;33.54;53.77
38022;BME280;23832;43.216;27.946;2022-07-29T09:09:50;100872.88;;;33.39;55.08
38022;BME280;23832;43.216;27.946;2022-07-29T09:11:52;100870.91;;;33.30;56.95
38022;BME280;23832;43.216;27.946;2022-07-29T09:13:54;100878.75;;;33.15;58.68
38022;BME280;23832;43.216;27.946;2022-07-29T09:15:55;100872.31;;;33.11;59.75
38022;BME280;23832;43.216;27.946;2022-07-29T09:17:57;100865.88;;;33.07;60.29
38022;BME280;23832;43.216;27.946;2022-07-29T09:20:00;100879.38;;;33.03;60.68
38022;BME280;23832;43.216;27.946;2022-07-29T09:22:10;100867.16;;;32.92;62.69
38022;BME280;23832;43.216;27.946;2022-07-29T09:24:14;100870.19;;;32.90;63.35
38022;BME280;23832;43.216;27.946;2022-07-29T09:26:15;100869.34;;;32.81;63.67
38022;BME280;23832;43.216;27.946;2022-07-29T09:28:18;100872.81;;;32.64;67.29
38022;BME280;23832;43.216;27.946;2022-07-29T09:30:19;100867.75;;;32.49;69.17
38022;BME280;23832;43.216;27.946;2022-07-29T09:32:22;100863.69;;;32.38;71.19
38022;BME280;23832;43.216;27.946;2022-07-29T09:34:24;100865.75;;;32.32;75.27
38022;BME280;23832;43.216;27.946;2022-07-29T09:36:26;100872.72;;;32.25;80.00
38022;BME280;23832;43.216;27.946;2022-07-29T09:38:28;100864.69;;;32.19;78.53
38022;BME280;23832;43.216;27.946;2022-07-29T09:40:31;100857.81;;;32.22;77.86
38022;BME280;23832;43.216;27.946;2022-07-29T09:42:33;100862.28;;;32.18;79.74
38022;BME280;23832;43.216;27.946;2022-07-29T09:44:41;100866.47;;;32.24;80.40
38022;BME280;23832;43.216;27.946;2022-07-29T09:46:53;100863.94;;;32.28;78.06
38022;BME280;23832;43.216;27.946;2022-07-29T09:49:08;100861.81;;;32.25;74.16
38022;BME280;23832;43.216;27.946;2022-07-29T09:51:19;100855.03;;;32.36;67.30
38022;BME280;23832;43.216;27.946;2022-07-29T09:53:31;100862.25;;;32.40;65.71
38022;BME280;23832;43.216;27.946;2022-07-29T09:55:40;100860.84;;;32.52;61.62
38022;BME280;23832;43.216;27.946;2022-07-29T09:57:47;100860.72;;;32.57;62.08
38022;BME280;23832;43.216;27.946;2022-07-29T09:59:53;100868.75;;;32.62;66.24
38022;BME280;23832;43.216;27.946;2022-07-29T10:01:56;100855.47;;;32.69;64.77
38022;BME280;23832;43.216;27.946;2022-07-29T10:03:58;100858.38;;;32.72;65.01
38022;BME280;23832;43.216;27.946;2022-07-29T10:06:04;100868.19;;;32.73;68.27
38022;BME280;23832;43.216;27.946;2022-07-29T10:08:06;100861.13;;;32.72;67.15
38022;BME280;23832;43.216;27.946;2022-07-29T10:10:08;100861.13;;;32.72;68.75
38022;BME280;23832;43.216;27.946;2022-07-29T10:12:12;100855.22;;;32.88;69.66
38022;BME280;23832;43.216;27.946;2022-07-29T10:14:15;100860.56;;;32.62;70.87
38022;BME280;23832;43.216;27.946;2022-07-29T10:16:16;100864.50;;;32.78;72.65
38022;BME280;23832;43.216;27.946;2022-07-29T10:18:18;100869.19;;;32.46;72.28
38022;BME280;23832;43.216;27.946;2022-07-29T10:20:21;100872.84;;;32.42;76.79
38022;BME280;23832;43.216;27.946;2022-07-29T10:22:22;100873.50;;;32.39;80.42
38022;BME280;23832;43.216;27.946;2022-07-29T10:24:25;100864.81;;;32.37;88.12
38022;BME280;23832;43.216;27.946;2022-07-29T10:26:27;100877.06;;;32.26;86.52
38022;BME280;23832;43.216;27.946;2022-07-29T10:28:31;100875.78;;;32.23;89.03
38022;BME280;23832;43.216;27.946;2022-07-29T10:30:33;100869.94;;;32.16;83.00